Terminal Aerodrome Forecast
Issued by NWS

Home | Current Version | Previous Version | Text Only | Print | Product List | Glossary Off
Versions: 1 2 3 4 5 6 7 8 9 10 11 12 13 14 15 16 17 18 19 20 21 22

000
FTUS43 KBIS 200541
TAFMOT
TAF
KMOT 200541Z 2006/2106 22005KT P6SM SKC
     FM201200 18003KT P6SM VCFG SCT010
     FM201500 VRB03KT P6SM SKC
     FM202100 14005KT 5SM BR BKN011
     FM202300 12004KT 3SM BR BKN007 OVC010
     FM210200 11003KT 1SM BR OVC003=

USA.gov is the U.S. government's official web portal to all federal, state and local government web resources and services.